AirNav   Air Wisconsin Up To $57,000 Bonus
 
 1019 users online  

0R1 Atmore Municipal Airport
Atmore, Alabama, USA

GOING TO ATMORE?


FAA INFORMATION EFFECTIVE 22 APRIL 2021

Location

FAA Identifier: 0R1
Lat/Long: 31-00-58.1000N 087-26-48.3000W
31-00.968333N 087-26.805000W
31.0161389,-87.4467500
(estimated)
Elevation: 286 ft. / 87.2 m (surveyed)
Variation: 03W (2020)
From city: 3 miles E of ATMORE, AL
Time zone: UTC -5 (UTC -6 during Standard Time)
Zip code: 36502

Airport Operations

Airport use: Open to the public
Activation date: 10/1961
Control tower: no
ARTCC: JACKSONVILLE CENTER
FSS: ANNISTON FLIGHT SERVICE STATION
NOTAMs facility: ANB (NOTAM-D service available)
Attendance: MON-FRI 0700-1700
WKENDS ON CALL.
Wind indicator: lighted
Segmented circle: yes
Lights: ACTVT PAPI RWYS 18 & 36; MIRL RWY 18/36 - CTAF.
Beacon: white-green (lighted land airport)
Operates sunset to sunrise.

Airport Communications

CTAF/UNICOM: 122.8
PENSACOLA APPROACH: 127.35
PENSACOLA DEPARTURE: 127.35
WX AWOS-3PT at 12J (20 nm E): 119.325 (251-809-2987)

Nearby radio navigation aids

VOR radial/distance  VOR name  Freq  Var
MVCr186/27.0MONROEVILLE VORTAC116.8004E
NUNr349/(33.1)SAUFLEY VOR108.8001E
BFMr048/39.6BROOKLEY VORTAC112.8004E

 
NDB name  Hdg/Dist  Freq  Var  ID
PICKENS340/37.432602WPKZ .--. -.- --..

Airport Services

Fuel available: 100LL
Parking: tiedowns
Airframe service: MAJOR
Powerplant service: MAJOR
Bottled oxygen: NONE
Bulk oxygen: NONE

Runway Information

Runway 18/36

Dimensions: 5001 x 80 ft. / 1524 x 24 m
Surface: asphalt, in good condition
Weight bearing capacity: 
Single wheel: 16.0
Runway edge lights: medium intensity
RUNWAY 18  RUNWAY 36
Latitude: 31-01.381432N31-00.556477N
Longitude: 087-26.806668W087-26.803960W
Elevation: 283.2 ft.279.9 ft.
Traffic pattern: leftleft
Runway heading: 183 magnetic, 180 true003 magnetic, 360 true
Markings: nonprecision, in fair conditionnonprecision, in fair condition
Visual slope indicator: 2-light PAPI on left (3.00 degrees glide path)2-light PAPI on left (3.00 degrees glide path)
Touchdown point: yes, no lightsyes, no lights
Obstructions: 35 ft. rr, 906 ft. from runway, 20:1 slope to clear
APCH RATIO 33:1 TO DSPLCD THR.
50 ft. pline, 1424 ft. from runway, 24:1 slope to clear
APCH RATIO 32:1 TO DSPLCD THR.

Airport Ownership and Management from official FAA records

Ownership: Publicly-owned
Owner: TOWN OF ATMORE
PO DRAWER 1297
ATMORE, AL 36504
Phone 251-368-2253
Manager: FREDDIE MCCALL
15 BEACON LN
ATMORE, AL 36502
Phone 251-368-2004
ALSO 251-655-0971

Airport Operational Statistics

Aircraft based on the field: 15
Single engine airplanes: 13
Helicopters: 1
Gliders airplanes: 1
    
Aircraft operations: avg 74/week *
78% transient general aviation
22% local general aviation
* for 12-month period ending 31 July 2020

Additional Remarks

FOR CD CTC PENSACOLA APCH AT 850-266-6884 OR 850-266-6885.

Instrument Procedures

NOTE: All procedures below are presented as PDF files. If you need a reader for these files, you should download the free Adobe Reader.

NOT FOR NAVIGATION. Please procure official charts for flight.
FAA instrument procedures published for use from 22 April 2021 at 0901Z to 20 May 2021 at 0900z.

 
IAPs - Instrument Approach Procedures
RNAV (GPS) RWY 18   download (207KB)
RNAV (GPS) RWY 36   download (212KB)
NOTE: Special Take-Off Minimums/Departure Procedures apply   download (317KB)

Other nearby airports with instrument procedures:

12J - Brewton Municipal Airport (20 nm E)
1R8 - Bay Minette Municipal Airport (21 nm SW)
KMVC - Monroe County Aeroplex Airport (27 nm N)
KNSE - Whiting Field Naval Air Station North (28 nm SE)
KNDZ - Whiting Field Naval Air Station South (29 nm SE)
 
Loc | Ops | Rwys | IFR | FBO | Links
Com | Nav | Svcs | Stats | Notes
Area around 0R1 (Atmore Municipal Airport)
 
Road maps at: MapQuest Bing Google
 
Aerial photo
No photo
 
Sectional chart

 
Airport distance calculator
Flying to Atmore Municipal Airport? Find the distance to fly.

From to 0R1

Sunrise and sunset
Times for 17-May-2021
 Local
(UTC-5)
 Zulu
(UTC)
Morning civil twilight05:2710:27
Sunrise05:5410:54
Sunset19:3800:38
Evening civil twilight20:0501:05

Current date and time
Zulu (UTC)  18-May-2021 02:30:01
Local (UTC-5)  17-May-2021 21:30:01
 
METAR
KNSE 
29nm SE 
180056Z 12006KT 10SM FEW035 SCT150 BKN250 22/16 A3008 RMK AO2 SLP171 T02170156
KNDZ 
29nm SE 
180156Z 14006KT 10SM SCT150 SCT250 22/18 A3008 RMK SLP172 T02170178
KGZH 
31nm NE 
180153Z AUTO 18005KT 8SM CLR 23/16 A3008 RMK AO2 SLP184 T02280156
KPNS 
35nm SE 
180153Z 14012G19KT 10SM CLR 23/18 A3007 RMK AO2 SLP184 T02330183
KBFM 
40nm SW 
180153Z 13011KT 10SM CLR 23/19 A3008 RMK AO2 SLP185 T02330194
KCQF 
40nm SW 
180215Z AUTO 12005KT 10SM BKN120 22/18 A3008 RMK AO2
KNPA 
41nm S 
180156Z 14010KT 10SM FEW020 BKN150 23/18 A3007 RMK AO2 SLP184 T02330183 PNO $
KJKA 
45nm S 
180215Z AUTO 13012G17KT 10SM BKN120 23/19 A3007 RMK AO2 T02300187
KMOB 
46nm SW 
180156Z 13010KT 10SM FEW018 SCT060 BKN200 22/19 A3007 RMK AO2 SLP179 T02220189
TAF
KNSE 
29nm SE 
1723/1823 15007G14KT 9999 FEW050 SCT140 SCT250 QNH3007INS FM180100 13005KT 9999 SCT140 SCT250 QNH3008INS FM181100 13008G15KT 9999 FEW030 BKN120 OVC250 QNH3009INS FM181700 13010G20KT 9999 SCT040 BKN120 BKN250 QNH3011INS AUTOMATED SENSOR METWATCH 1804 TIL 1811 T19/1812Z T26/1820Z FN20030
KPNS 
35nm SE 
171720Z 1718/1818 13014KT P6SM SCT050 SCT250 FM180300 13006KT P6SM SCT080 FM181500 11012G18KT P6SM SCT025 BKN050
NOTAMs
Click for the latest NOTAMs
NOTAMs are issued by the DoD/FAA and will open in a separate window not controlled by AirNav.

 

 
 

FBO, Fuel Providers, and Aircraft Ground Support

  
 Business Name 
 
 Contact 
 
 Services / Description 
 
Fuel Prices
 
Comments
  
Aviation Specialists LLC 251-368-2004
no information available

If you are affiliated with Aviation Specialists LLC and would like to show here your services, contact info, web link, logo, and more, click here
100LL
SS $4.25 
 Updated 13-May-2021
 
   3 read write
SS=Self service
Update Fuel Prices
 

Would you like to see your business listed on this page?

 If your business provides an interesting product or service to pilots, flight crews, aircraft, or users of the Atmore Municipal Airport, you should consider listing it here.  To start the listing process, click on the button below
 
Add a business
 

Other Pages about Atmore Municipal Airport

Update a link
 
Copyright © AirNav, LLC. All rights reserved. Privacy Policy  Contact